IVAO ES Tour IFR-A 2013 Etapa 9

IVAO ES Tour IFR-A 2013 Etapa 9

Barcelona ( LEBL ) – Alicante ( LEAL )

Datos generales del vuelo
 Fecha 25-11-2013  Avión  B737-800 winglets
 Ruta LOTOS B28 VLC  Nivel de vuelo FL230
 Origen LEBL  Destino LEAL
 Velocidad M0.724  Distancia 255Nm
 Distancia real 217Nm ETE 00:40
 ETA 15:50Z  FOB 02:00
 Hora salida 15:15Z Hora llegada 16:10Z
 Pax 161 TOW 67079Kg
 MTOW  78471Kg Fuel 6262Kg
 Fuel utilizado 2902Kg ZFW 60816Kg
Peso carga 8097Kg Peso pasaje 11306Kg
V1 133Knots Vr 143Knots
 V2 152Knots  Vref 149Knots
 Velocidad vertical toma
161,54 ft/m  

 

Datos LEBL

Metar: LEBL 251430Z 35009KT CAVOK 13/02 Q1017 NOSIG
Salida: LOTOS4W

Datos LEAL

Metar: LEAL 251530Z 16006KT 130V200 CAVOK 17/02 Q1018 NOSIG
Llegada: VLC2L
App:  ILZ Z RWY10 transición VILNA

 

 

 

Deja una respuesta